sensor_id;sensor_type;location;lat;lon;timestamp;temperature;humidity
43651;DHT22;29247;50.944;5.382;2024-03-06T00:02:14;22.20;56.80
43651;DHT22;29247;50.944;5.382;2024-03-06T00:04:40;22.20;56.80
43651;DHT22;29247;50.944;5.382;2024-03-06T00:07:06;22.10;56.80
43651;DHT22;29247;50.944;5.382;2024-03-06T00:09:31;22.10;56.80
43651;DHT22;29247;50.944;5.382;2024-03-06T00:11:59;22.10;56.80
43651;DHT22;29247;50.944;5.382;2024-03-06T00:14:25;22.10;56.80
43651;DHT22;29247;50.944;5.382;2024-03-06T00:16:51;22.10;56.90
43651;DHT22;29247;50.944;5.382;2024-03-06T00:19:18;22.10;56.90
43651;DHT22;29247;50.944;5.382;2024-03-06T00:21:44;22.10;56.80
43651;DHT22;29247;50.944;5.382;2024-03-06T00:24:12;22.10;56.90
43651;DHT22;29247;50.944;5.382;2024-03-06T00:26:40;22.10;56.90
43651;DHT22;29247;50.944;5.382;2024-03-06T00:29:06;22.10;56.90
43651;DHT22;29247;50.944;5.382;2024-03-06T00:31:32;22.10;56.90
43651;DHT22;29247;50.944;5.382;2024-03-06T00:33:57;22.00;56.80
43651;DHT22;29247;50.944;5.382;2024-03-06T00:36:23;22.10;56.90
43651;DHT22;29247;50.944;5.382;2024-03-06T00:38:49;22.00;56.90
43651;DHT22;29247;50.944;5.382;2024-03-06T00:41:14;22.00;56.80
43651;DHT22;29247;50.944;5.382;2024-03-06T00:43:43;22.00;56.80
43651;DHT22;29247;50.944;5.382;2024-03-06T00:46:11;22.00;56.90
43651;DHT22;29247;50.944;5.382;2024-03-06T00:48:36;22.00;56.90
43651;DHT22;29247;50.944;5.382;2024-03-06T00:51:07;22.00;56.90
43651;DHT22;29247;50.944;5.382;2024-03-06T00:53:34;22.00;56.90
43651;DHT22;29247;50.944;5.382;2024-03-06T00:56:00;22.00;56.90
43651;DHT22;29247;50.944;5.382;2024-03-06T00:58:26;22.00;56.90
43651;DHT22;29247;50.944;5.382;2024-03-06T01:00:52;21.90;56.90
43651;DHT22;29247;50.944;5.382;2024-03-06T01:03:17;21.90;56.90
43651;DHT22;29247;50.944;5.382;2024-03-06T01:05:43;21.90;56.90
43651;DHT22;29247;50.944;5.382;2024-03-06T01:08:08;21.90;56.90
43651;DHT22;29247;50.944;5.382;2024-03-06T01:10:34;21.90;56.90
43651;DHT22;29247;50.944;5.382;2024-03-06T01:13:01;21.90;56.90
43651;DHT22;29247;50.944;5.382;2024-03-06T01:15:28;21.90;56.90
43651;DHT22;29247;50.944;5.382;2024-03-06T01:17:54;21.90;56.90
43651;DHT22;29247;50.944;5.382;2024-03-06T01:20:19;21.90;56.90
43651;DHT22;29247;50.944;5.382;2024-03-06T01:22:45;21.90;56.90
43651;DHT22;29247;50.944;5.382;2024-03-06T01:25:12;21.80;57.20
43651;DHT22;29247;50.944;5.382;2024-03-06T01:27:37;21.80;56.80
43651;DHT22;29247;50.944;5.382;2024-03-06T01:30:06;21.90;56.90
43651;DHT22;29247;50.944;5.382;2024-03-06T01:32:32;21.80;56.80
43651;DHT22;29247;50.944;5.382;2024-03-06T01:34:58;21.80;56.90
43651;DHT22;29247;50.944;5.382;2024-03-06T01:37:24;21.80;56.90
43651;DHT22;29247;50.944;5.382;2024-03-06T01:39:50;21.80;56.90
43651;DHT22;29247;50.944;5.382;2024-03-06T01:42:17;21.80;56.90
43651;DHT22;29247;50.944;5.382;2024-03-06T01:44:43;21.80;56.80
43651;DHT22;29247;50.944;5.382;2024-03-06T01:47:11;21.80;56.90
43651;DHT22;29247;50.944;5.382;2024-03-06T01:49:37;21.80;56.80
43651;DHT22;29247;50.944;5.382;2024-03-06T01:52:03;21.70;56.80
43651;DHT22;29247;50.944;5.382;2024-03-06T01:54:30;21.70;56.80
43651;DHT22;29247;50.944;5.382;2024-03-06T01:56:57;21.70;56.80
43651;DHT22;29247;50.944;5.382;2024-03-06T01:59:25;21.70;56.80
43651;DHT22;29247;50.944;5.382;2024-03-06T02:01:54;21.70;56.80
43651;DHT22;29247;50.944;5.382;2024-03-06T02:04:26;21.70;56.80
43651;DHT22;29247;50.944;5.382;2024-03-06T02:06:53;21.70;56.80
43651;DHT22;29247;50.944;5.382;2024-03-06T02:09:19;21.70;56.80
43651;DHT22;29247;50.944;5.382;2024-03-06T02:11:45;21.70;56.80
43651;DHT22;29247;50.944;5.382;2024-03-06T02:14:11;21.60;56.80
43651;DHT22;29247;50.944;5.382;2024-03-06T02:16:37;21.60;56.80
43651;DHT22;29247;50.944;5.382;2024-03-06T02:19:09;21.70;56.80
43651;DHT22;29247;50.944;5.382;2024-03-06T02:21:35;21.60;56.80
43651;DHT22;29247;50.944;5.382;2024-03-06T02:24:03;21.60;56.80
43651;DHT22;29247;50.944;5.382;2024-03-06T02:26:31;21.60;56.80
43651;DHT22;29247;50.944;5.382;2024-03-06T02:28:58;21.60;57.30
43651;DHT22;29247;50.944;5.382;2024-03-06T02:31:24;21.60;56.80
43651;DHT22;29247;50.944;5.382;2024-03-06T02:33:50;21.60;56.80
43651;DHT22;29247;50.944;5.382;2024-03-06T02:36:16;21.60;56.80
43651;DHT22;29247;50.944;5.382;2024-03-06T02:38:43;21.50;56.70
43651;DHT22;29247;50.944;5.382;2024-03-06T02:41:10;21.50;56.70
43651;DHT22;29247;50.944;5.382;2024-03-06T02:43:36;21.50;56.70
43651;DHT22;29247;50.944;5.382;2024-03-06T02:46:02;21.50;56.70
43651;DHT22;29247;50.944;5.382;2024-03-06T02:48:28;21.50;56.70
43651;DHT22;29247;50.944;5.382;2024-03-06T02:50:59;21.50;56.70
43651;DHT22;29247;50.944;5.382;2024-03-06T02:53:24;21.50;56.70
43651;DHT22;29247;50.944;5.382;2024-03-06T02:55:51;21.50;56.70
43651;DHT22;29247;50.944;5.382;2024-03-06T02:58:19;21.40;56.70
43651;DHT22;29247;50.944;5.382;2024-03-06T03:00:45;21.40;56.70
43651;DHT22;29247;50.944;5.382;2024-03-06T03:03:11;21.40;56.70
43651;DHT22;29247;50.944;5.382;2024-03-06T03:05:38;21.40;56.70
43651;DHT22;29247;50.944;5.382;2024-03-06T03:08:03;21.40;56.70
43651;DHT22;29247;50.944;5.382;2024-03-06T03:10:30;21.40;56.70
43651;DHT22;29247;50.944;5.382;2024-03-06T03:12:58;21.40;56.70
43651;DHT22;29247;50.944;5.382;2024-03-06T03:15:25;21.40;56.70
43651;DHT22;29247;50.944;5.382;2024-03-06T03:17:50;21.40;56.70
43651;DHT22;29247;50.944;5.382;2024-03-06T03:20:16;21.30;56.60
43651;DHT22;29247;50.944;5.382;2024-03-06T03:22:43;21.30;56.60
43651;DHT22;29247;50.944;5.382;2024-03-06T03:25:13;21.40;56.70
43651;DHT22;29247;50.944;5.382;2024-03-06T03:27:43;21.30;56.60
43651;DHT22;29247;50.944;5.382;2024-03-06T03:30:12;21.30;56.60
43651;DHT22;29247;50.944;5.382;2024-03-06T03:32:38;21.30;56.70
43651;DHT22;29247;50.944;5.382;2024-03-06T03:35:08;21.30;56.60
43651;DHT22;29247;50.944;5.382;2024-03-06T03:37:34;21.30;56.70
43651;DHT22;29247;50.944;5.382;2024-03-06T03:40:00;21.30;56.70
43651;DHT22;29247;50.944;5.382;2024-03-06T03:42:28;21.30;56.60
43651;DHT22;29247;50.944;5.382;2024-03-06T03:44:53;21.30;56.60
43651;DHT22;29247;50.944;5.382;2024-03-06T03:47:19;21.30;56.60
43651;DHT22;29247;50.944;5.382;2024-03-06T03:49:45;21.30;56.60
43651;DHT22;29247;50.944;5.382;2024-03-06T03:52:10;21.20;56.60
43651;DHT22;29247;50.944;5.382;2024-03-06T03:54:37;21.20;56.60
43651;DHT22;29247;50.944;5.382;2024-03-06T03:57:07;21.20;56.60
43651;DHT22;29247;50.944;5.382;2024-03-06T03:59:33;21.20;56.60
43651;DHT22;29247;50.944;5.382;2024-03-06T04:01:59;21.20;56.60
43651;DHT22;29247;50.944;5.382;2024-03-06T04:04:25;21.20;56.60
43651;DHT22;29247;50.944;5.382;2024-03-06T04:06:50;21.20;56.60
43651;DHT22;29247;50.944;5.382;2024-03-06T04:09:16;21.20;56.60
43651;DHT22;29247;50.944;5.382;2024-03-06T04:11:42;21.20;56.60
43651;DHT22;29247;50.944;5.382;2024-03-06T04:14:32;21.10;56.60
43651;DHT22;29247;50.944;5.382;2024-03-06T04:16:57;21.10;56.50
43651;DHT22;29247;50.944;5.382;2024-03-06T04:19:23;21.10;56.60
43651;DHT22;29247;50.944;5.382;2024-03-06T04:21:48;21.10;56.60
43651;DHT22;29247;50.944;5.382;2024-03-06T04:24:14;21.10;56.60
43651;DHT22;29247;50.944;5.382;2024-03-06T04:26:40;21.10;56.60
43651;DHT22;29247;50.944;5.382;2024-03-06T04:29:27;21.10;56.60
43651;DHT22;29247;50.944;5.382;2024-03-06T04:31:53;21.10;56.50
43651;DHT22;29247;50.944;5.382;2024-03-06T04:34:18;21.00;56.50
43651;DHT22;29247;50.944;5.382;2024-03-06T04:36:45;21.00;56.50
43651;DHT22;29247;50.944;5.382;2024-03-06T04:39:10;21.00;56.50
43651;DHT22;29247;50.944;5.382;2024-03-06T04:41:39;21.00;56.50
43651;DHT22;29247;50.944;5.382;2024-03-06T04:44:05;21.00;56.50
43651;DHT22;29247;50.944;5.382;2024-03-06T04:46:31;21.00;56.50
43651;DHT22;29247;50.944;5.382;2024-03-06T04:48:57;21.00;56.50
43651;DHT22;29247;50.944;5.382;2024-03-06T04:51:22;21.00;56.50
43651;DHT22;29247;50.944;5.382;2024-03-06T04:53:53;21.00;56.50
43651;DHT22;29247;50.944;5.382;2024-03-06T04:56:21;21.00;56.50
43651;DHT22;29247;50.944;5.382;2024-03-06T04:58:49;21.00;56.50
43651;DHT22;29247;50.944;5.382;2024-03-06T05:01:46;20.90;56.50
43651;DHT22;29247;50.944;5.382;2024-03-06T05:04:11;21.00;56.50
43651;DHT22;29247;50.944;5.382;2024-03-06T05:06:39;20.90;56.50
43651;DHT22;29247;50.944;5.382;2024-03-06T05:09:05;20.90;56.50
43651;DHT22;29247;50.944;5.382;2024-03-06T05:11:31;20.90;56.40
43651;DHT22;29247;50.944;5.382;2024-03-06T05:14:03;20.90;56.40
43651;DHT22;29247;50.944;5.382;2024-03-06T05:16:28;20.90;56.50
43651;DHT22;29247;50.944;5.382;2024-03-06T05:18:54;20.90;56.50
43651;DHT22;29247;50.944;5.382;2024-03-06T05:21:20;20.90;56.50
43651;DHT22;29247;50.944;5.382;2024-03-06T05:23:48;20.90;56.70
43651;DHT22;29247;50.944;5.382;2024-03-06T05:26:14;20.90;56.40
43651;DHT22;29247;50.944;5.382;2024-03-06T05:28:42;20.90;56.40
43651;DHT22;29247;50.944;5.382;2024-03-06T05:31:19;20.80;56.40
43651;DHT22;29247;50.944;5.382;2024-03-06T05:33:47;20.80;56.40
43651;DHT22;29247;50.944;5.382;2024-03-06T05:36:14;20.80;56.50
43651;DHT22;29247;50.944;5.382;2024-03-06T05:38:40;20.80;56.60
43651;DHT22;29247;50.944;5.382;2024-03-06T05:41:05;20.80;56.60
43651;DHT22;29247;50.944;5.382;2024-03-06T05:43:31;20.80;56.60
43651;DHT22;29247;50.944;5.382;2024-03-06T05:45:59;20.80;56.60
43651;DHT22;29247;50.944;5.382;2024-03-06T05:48:27;20.80;56.60
43651;DHT22;29247;50.944;5.382;2024-03-06T05:50:57;20.90;56.60
43651;DHT22;29247;50.944;5.382;2024-03-06T05:53:23;20.90;56.60
43651;DHT22;29247;50.944;5.382;2024-03-06T05:55:49;20.90;56.40
43651;DHT22;29247;50.944;5.382;2024-03-06T05:58:14;20.90;56.30
43651;DHT22;29247;50.944;5.382;2024-03-06T06:00:44;20.90;56.10
43651;DHT22;29247;50.944;5.382;2024-03-06T06:03:12;20.90;56.60
43651;DHT22;29247;50.944;5.382;2024-03-06T06:05:41;21.00;56.00
43651;DHT22;29247;50.944;5.382;2024-03-06T06:08:06;21.00;56.10
43651;DHT22;29247;50.944;5.382;2024-03-06T06:10:32;21.00;55.70
43651;DHT22;29247;50.944;5.382;2024-03-06T06:13:02;21.00;55.80
43651;DHT22;29247;50.944;5.382;2024-03-06T06:15:34;21.00;55.90
43651;DHT22;29247;50.944;5.382;2024-03-06T06:18:01;21.00;56.00
43651;DHT22;29247;50.944;5.382;2024-03-06T06:20:27;21.10;56.10
43651;DHT22;29247;50.944;5.382;2024-03-06T06:22:55;21.10;56.10
43651;DHT22;29247;50.944;5.382;2024-03-06T06:25:23;21.20;56.10
43651;DHT22;29247;50.944;5.382;2024-03-06T06:27:49;21.20;56.10
43651;DHT22;29247;50.944;5.382;2024-03-06T06:30:15;21.30;56.10
43651;DHT22;29247;50.944;5.382;2024-03-06T06:32:42;21.30;56.20
43651;DHT22;29247;50.944;5.382;2024-03-06T06:35:10;21.40;56.30
43651;DHT22;29247;50.944;5.382;2024-03-06T06:37:39;21.40;56.30
43651;DHT22;29247;50.944;5.382;2024-03-06T06:40:08;21.40;56.30
43651;DHT22;29247;50.944;5.382;2024-03-06T06:42:35;21.50;56.40
43651;DHT22;29247;50.944;5.382;2024-03-06T06:45:04;21.50;56.40
43651;DHT22;29247;50.944;5.382;2024-03-06T06:47:31;21.60;56.40
43651;DHT22;29247;50.944;5.382;2024-03-06T06:49:57;21.60;56.40
43651;DHT22;29247;50.944;5.382;2024-03-06T06:52:23;21.60;56.40
43651;DHT22;29247;50.944;5.382;2024-03-06T06:54:53;21.60;56.40
43651;DHT22;29247;50.944;5.382;2024-03-06T06:57:18;21.60;56.40
43651;DHT22;29247;50.944;5.382;2024-03-06T06:59:47;21.60;57.00
43651;DHT22;29247;50.944;5.382;2024-03-06T07:02:15;21.60;56.40
43651;DHT22;29247;50.944;5.382;2024-03-06T07:04:41;21.60;56.40
43651;DHT22;29247;50.944;5.382;2024-03-06T07:07:06;21.60;56.40
43651;DHT22;29247;50.944;5.382;2024-03-06T07:09:32;21.60;57.20
43651;DHT22;29247;50.944;5.382;2024-03-06T07:12:01;21.60;57.10
43651;DHT22;29247;50.944;5.382;2024-03-06T07:14:31;21.60;57.60
43651;DHT22;29247;50.944;5.382;2024-03-06T07:16:57;21.60;58.00
43651;DHT22;29247;50.944;5.382;2024-03-06T07:19:23;21.60;58.30
43651;DHT22;29247;50.944;5.382;2024-03-06T07:21:48;21.60;58.40
43651;DHT22;29247;50.944;5.382;2024-03-06T07:24:14;21.60;58.50
43651;DHT22;29247;50.944;5.382;2024-03-06T07:26:40;21.70;58.60
43651;DHT22;29247;50.944;5.382;2024-03-06T07:29:12;21.70;58.50
43651;DHT22;29247;50.944;5.382;2024-03-06T07:31:43;21.70;58.40
43651;DHT22;29247;50.944;5.382;2024-03-06T07:34:10;21.80;58.20
43651;DHT22;29247;50.944;5.382;2024-03-06T07:36:38;21.80;58.10
43651;DHT22;29247;50.944;5.382;2024-03-06T07:39:04;21.80;57.90
43651;DHT22;29247;50.944;5.382;2024-03-06T07:41:40;21.80;57.80
43651;DHT22;29247;50.944;5.382;2024-03-06T07:44:05;21.80;57.60
43651;DHT22;29247;50.944;5.382;2024-03-06T07:46:31;21.90;57.50
43651;DHT22;29247;50.944;5.382;2024-03-06T07:48:57;21.90;58.00
43651;DHT22;29247;50.944;5.382;2024-03-06T07:51:23;21.90;57.20
43651;DHT22;29247;50.944;5.382;2024-03-06T07:53:51;22.00;57.10
43651;DHT22;29247;50.944;5.382;2024-03-06T07:56:18;22.00;56.90
43651;DHT22;29247;50.944;5.382;2024-03-06T07:58:44;22.00;56.70
43651;DHT22;29247;50.944;5.382;2024-03-06T08:01:12;22.00;56.60
43651;DHT22;29247;50.944;5.382;2024-03-06T08:03:41;22.00;56.60
43651;DHT22;29247;50.944;5.382;2024-03-06T08:06:08;22.00;56.40
43651;DHT22;29247;50.944;5.382;2024-03-06T08:08:34;22.10;56.40
43651;DHT22;29247;50.944;5.382;2024-03-06T08:11:02;22.00;56.30
43651;DHT22;29247;50.944;5.382;2024-03-06T08:13:31;22.00;56.20
43651;DHT22;29247;50.944;5.382;2024-03-06T08:15:59;22.00;56.20
43651;DHT22;29247;50.944;5.382;2024-03-06T08:18:27;22.00;56.00
43651;DHT22;29247;50.944;5.382;2024-03-06T08:20:53;22.00;56.00
43651;DHT22;29247;50.944;5.382;2024-03-06T08:23:19;22.00;55.90
43651;DHT22;29247;50.944;5.382;2024-03-06T08:25:45;22.00;55.90
43651;DHT22;29247;50.944;5.382;2024-03-06T08:28:11;22.00;55.90
43651;DHT22;29247;50.944;5.382;2024-03-06T08:30:36;22.00;55.90
43651;DHT22;29247;50.944;5.382;2024-03-06T08:33:02;22.00;55.90
43651;DHT22;29247;50.944;5.382;2024-03-06T08:35:31;22.00;56.40
43651;DHT22;29247;50.944;5.382;2024-03-06T08:37:57;22.00;55.90
43651;DHT22;29247;50.944;5.382;2024-03-06T08:40:22;21.90;55.80
43651;DHT22;29247;50.944;5.382;2024-03-06T08:42:51;21.90;55.80
43651;DHT22;29247;50.944;5.382;2024-03-06T08:45:17;21.90;55.80
43651;DHT22;29247;50.944;5.382;2024-03-06T08:47:46;21.90;55.90
43651;DHT22;29247;50.944;5.382;2024-03-06T08:50:15;21.90;55.90
43651;DHT22;29247;50.944;5.382;2024-03-06T08:52:44;21.90;56.00
43651;DHT22;29247;50.944;5.382;2024-03-06T08:55:10;21.80;55.90
43651;DHT22;29247;50.944;5.382;2024-03-06T08:57:36;21.80;56.00
43651;DHT22;29247;50.944;5.382;2024-03-06T09:00:04;21.80;56.00
43651;DHT22;29247;50.944;5.382;2024-03-06T09:02:32;21.80;56.00
43651;DHT22;29247;50.944;5.382;2024-03-06T09:04:58;21.80;56.10
43651;DHT22;29247;50.944;5.382;2024-03-06T09:07:23;21.80;56.10
43651;DHT22;29247;50.944;5.382;2024-03-06T09:09:49;21.70;56.00
43651;DHT22;29247;50.944;5.382;2024-03-06T09:12:17;21.70;56.70
43651;DHT22;29247;50.944;5.382;2024-03-06T09:14:43;21.70;56.20
43651;DHT22;29247;50.944;5.382;2024-03-06T09:17:10;21.70;56.20
43651;DHT22;29247;50.944;5.382;2024-03-06T09:19:36;21.70;56.30
43651;DHT22;29247;50.944;5.382;2024-03-06T09:22:04;21.70;56.40
43651;DHT22;29247;50.944;5.382;2024-03-06T09:24:29;21.60;56.40
43651;DHT22;29247;50.944;5.382;2024-03-06T09:26:55;21.60;56.50
43651;DHT22;29247;50.944;5.382;2024-03-06T09:29:21;21.60;56.50
43651;DHT22;29247;50.944;5.382;2024-03-06T09:31:47;21.60;56.60
43651;DHT22;29247;50.944;5.382;2024-03-06T09:34:14;21.60;56.40
43651;DHT22;29247;50.944;5.382;2024-03-06T09:36:41;21.50;56.30
43651;DHT22;29247;50.944;5.382;2024-03-06T09:39:14;21.50;56.50
43651;DHT22;29247;50.944;5.382;2024-03-06T09:41:53;21.50;56.50
43651;DHT22;29247;50.944;5.382;2024-03-06T09:44:21;21.50;56.60
43651;DHT22;29247;50.944;5.382;2024-03-06T09:46:48;21.50;56.60
43651;DHT22;29247;50.944;5.382;2024-03-06T09:49:22;21.50;56.80
43651;DHT22;29247;50.944;5.382;2024-03-06T09:51:51;21.50;56.80
43651;DHT22;29247;50.944;5.382;2024-03-06T09:54:19;21.50;56.90
43651;DHT22;29247;50.944;5.382;2024-03-06T09:56:46;21.40;56.90
43651;DHT22;29247;50.944;5.382;2024-03-06T09:59:15;21.40;57.00
43651;DHT22;29247;50.944;5.382;2024-03-06T10:01:58;21.40;57.00
43651;DHT22;29247;50.944;5.382;2024-03-06T10:04:28;21.40;57.10
43651;DHT22;29247;50.944;5.382;2024-03-06T10:06:58;21.40;57.10
43651;DHT22;29247;50.944;5.382;2024-03-06T10:09:24;21.40;57.20
43651;DHT22;29247;50.944;5.382;2024-03-06T10:11:50;21.40;57.20
43651;DHT22;29247;50.944;5.382;2024-03-06T10:14:19;21.40;57.30
43651;DHT22;29247;50.944;5.382;2024-03-06T10:16:58;21.30;57.30
43651;DHT22;29247;50.944;5.382;2024-03-06T10:19:28;21.40;57.40
43651;DHT22;29247;50.944;5.382;2024-03-06T10:21:55;21.40;57.50
43651;DHT22;29247;50.944;5.382;2024-03-06T10:24:23;21.30;57.40
43651;DHT22;29247;50.944;5.382;2024-03-06T10:26:57;21.30;57.50
43651;DHT22;29247;50.944;5.382;2024-03-06T10:29:24;21.30;57.50
43651;DHT22;29247;50.944;5.382;2024-03-06T10:31:57;21.30;57.60
43651;DHT22;29247;50.944;5.382;2024-03-06T10:34:27;21.30;57.60
43651;DHT22;29247;50.944;5.382;2024-03-06T10:36:57;21.30;57.60
43651;DHT22;29247;50.944;5.382;2024-03-06T10:39:28;21.30;57.70
43651;DHT22;29247;50.944;5.382;2024-03-06T10:41:58;21.20;57.70
43651;DHT22;29247;50.944;5.382;2024-03-06T10:44:27;21.20;57.70
43651;DHT22;29247;50.944;5.382;2024-03-06T10:46:58;21.20;57.70
43651;DHT22;29247;50.944;5.382;2024-03-06T10:49:26;21.30;57.80
43651;DHT22;29247;50.944;5.382;2024-03-06T10:52:02;21.20;57.80
43651;DHT22;29247;50.944;5.382;2024-03-06T10:54:34;21.20;57.80
43651;DHT22;29247;50.944;5.382;2024-03-06T10:57:02;21.20;57.80
43651;DHT22;29247;50.944;5.382;2024-03-06T10:59:29;21.20;57.90
43651;DHT22;29247;50.944;5.382;2024-03-06T11:01:55;21.20;58.00
43651;DHT22;29247;50.944;5.382;2024-03-06T11:04:24;21.20;57.90
43651;DHT22;29247;50.944;5.382;2024-03-06T11:06:50;21.20;58.00
43651;DHT22;29247;50.944;5.382;2024-03-06T11:09:18;21.20;58.00
43651;DHT22;29247;50.944;5.382;2024-03-06T11:11:51;21.20;57.90
43651;DHT22;29247;50.944;5.382;2024-03-06T11:14:18;21.20;58.00
43651;DHT22;29247;50.944;5.382;2024-03-06T11:17:01;21.10;57.90
43651;DHT22;29247;50.944;5.382;2024-03-06T11:20:07;21.10;58.00
43651;DHT22;29247;50.944;5.382;2024-03-06T11:22:18;21.10;58.00
43651;DHT22;29247;50.944;5.382;2024-03-06T11:24:44;21.10;58.00
43651;DHT22;29247;50.944;5.382;2024-03-06T11:27:10;21.10;58.10
43651;DHT22;29247;50.944;5.382;2024-03-06T11:30:06;21.10;58.10
43651;DHT22;29247;50.944;5.382;2024-03-06T11:33:03;21.10;58.10
43651;DHT22;29247;50.944;5.382;2024-03-06T11:35:30;21.10;58.20
43651;DHT22;29247;50.944;5.382;2024-03-06T11:37:56;21.10;58.20
43651;DHT22;29247;50.944;5.382;2024-03-06T11:40:29;21.00;58.20
43651;DHT22;29247;50.944;5.382;2024-03-06T11:42:55;21.10;58.30
43651;DHT22;29247;50.944;5.382;2024-03-06T11:45:22;21.10;58.30
43651;DHT22;29247;50.944;5.382;2024-03-06T11:48:01;21.10;58.30
43651;DHT22;29247;50.944;5.382;2024-03-06T11:50:28;21.10;58.30
43651;DHT22;29247;50.944;5.382;2024-03-06T11:52:56;21.10;58.40
43651;DHT22;29247;50.944;5.382;2024-03-06T11:55:27;21.10;58.40
43651;DHT22;29247;50.944;5.382;2024-03-06T11:57:53;21.00;58.30
43651;DHT22;29247;50.944;5.382;2024-03-06T12:00:22;21.10;58.40
43651;DHT22;29247;50.944;5.382;2024-03-06T12:02:49;21.10;58.40
43651;DHT22;29247;50.944;5.382;2024-03-06T12:05:15;21.00;58.40
43651;DHT22;29247;50.944;5.382;2024-03-06T12:07:50;21.00;58.40
43651;DHT22;29247;50.944;5.382;2024-03-06T12:10:17;21.00;58.40
43651;DHT22;29247;50.944;5.382;2024-03-06T12:12:43;21.00;58.40
43651;DHT22;29247;50.944;5.382;2024-03-06T12:15:10;21.00;58.40
43651;DHT22;29247;50.944;5.382;2024-03-06T12:17:47;21.00;58.40
43651;DHT22;29247;50.944;5.382;2024-03-06T12:20:14;21.00;58.50
43651;DHT22;29247;50.944;5.382;2024-03-06T12:22:51;21.00;58.50
43651;DHT22;29247;50.944;5.382;2024-03-06T12:25:24;20.90;58.40
43651;DHT22;29247;50.944;5.382;2024-03-06T12:27:51;20.90;58.50
43651;DHT22;29247;50.944;5.382;2024-03-06T12:30:23;21.00;58.50
43651;DHT22;29247;50.944;5.382;2024-03-06T12:33:01;20.90;58.50
43651;DHT22;29247;50.944;5.382;2024-03-06T12:35:31;20.90;58.50
43651;DHT22;29247;50.944;5.382;2024-03-06T12:37:57;20.90;58.50
43651;DHT22;29247;50.944;5.382;2024-03-06T12:40:25;20.90;58.50
43651;DHT22;29247;50.944;5.382;2024-03-06T12:42:51;20.90;58.50
43651;DHT22;29247;50.944;5.382;2024-03-06T12:45:19;20.90;58.50
43651;DHT22;29247;50.944;5.382;2024-03-06T12:47:47;20.90;59.10
43651;DHT22;29247;50.944;5.382;2024-03-06T12:50:15;20.90;58.50
43651;DHT22;29247;50.944;5.382;2024-03-06T12:52:41;20.80;58.50
43651;DHT22;29247;50.944;5.382;2024-03-06T12:55:09;20.90;58.50
43651;DHT22;29247;50.944;5.382;2024-03-06T12:57:35;20.90;58.50
43651;DHT22;29247;50.944;5.382;2024-03-06T13:00:03;20.80;58.50
43651;DHT22;29247;50.944;5.382;2024-03-06T13:02:32;20.90;58.50
43651;DHT22;29247;50.944;5.382;2024-03-06T13:05:00;20.80;58.60
43651;DHT22;29247;50.944;5.382;2024-03-06T13:07:26;20.90;59.10
43651;DHT22;29247;50.944;5.382;2024-03-06T13:09:57;20.80;58.50
43651;DHT22;29247;50.944;5.382;2024-03-06T13:12:22;20.90;58.70
43651;DHT22;29247;50.944;5.382;2024-03-06T13:14:48;20.80;58.60
43651;DHT22;29247;50.944;5.382;2024-03-06T13:17:16;20.80;58.70
43651;DHT22;29247;50.944;5.382;2024-03-06T13:19:41;20.80;58.70
43651;DHT22;29247;50.944;5.382;2024-03-06T13:22:07;20.90;58.80
43651;DHT22;29247;50.944;5.382;2024-03-06T13:24:33;20.80;58.80
43651;DHT22;29247;50.944;5.382;2024-03-06T13:26:59;20.90;58.80
43651;DHT22;29247;50.944;5.382;2024-03-06T13:29:25;20.90;58.80
43651;DHT22;29247;50.944;5.382;2024-03-06T13:31:53;20.90;58.80
43651;DHT22;29247;50.944;5.382;2024-03-06T13:34:21;20.90;58.80
43651;DHT22;29247;50.944;5.382;2024-03-06T13:36:47;20.90;58.80
43651;DHT22;29247;50.944;5.382;2024-03-06T13:39:13;21.00;58.80
43651;DHT22;29247;50.944;5.382;2024-03-06T13:41:40;20.90;58.70
43651;DHT22;29247;50.944;5.382;2024-03-06T13:44:08;20.90;58.70
43651;DHT22;29247;50.944;5.382;2024-03-06T13:46:34;21.00;58.80
43651;DHT22;29247;50.944;5.382;2024-03-06T13:49:02;21.00;58.80
43651;DHT22;29247;50.944;5.382;2024-03-06T13:51:28;21.00;58.80
43651;DHT22;29247;50.944;5.382;2024-03-06T13:53:54;21.00;58.80
43651;DHT22;29247;50.944;5.382;2024-03-06T13:56:19;21.00;58.80
43651;DHT22;29247;50.944;5.382;2024-03-06T13:58:45;21.00;58.80
43651;DHT22;29247;50.944;5.382;2024-03-06T14:01:13;21.10;58.80
43651;DHT22;29247;50.944;5.382;2024-03-06T14:03:38;21.10;58.80
43651;DHT22;29247;50.944;5.382;2024-03-06T14:06:05;21.10;58.80
43651;DHT22;29247;50.944;5.382;2024-03-06T14:08:32;21.20;58.90
43651;DHT22;29247;50.944;5.382;2024-03-06T14:10:58;21.20;58.90
43651;DHT22;29247;50.944;5.382;2024-03-06T14:13:24;21.20;58.80
43651;DHT22;29247;50.944;5.382;2024-03-06T14:15:49;21.20;58.80
43651;DHT22;29247;50.944;5.382;2024-03-06T14:18:15;21.20;58.80
43651;DHT22;29247;50.944;5.382;2024-03-06T14:20:43;21.30;58.80
43651;DHT22;29247;50.944;5.382;2024-03-06T14:23:08;21.30;58.80
43651;DHT22;29247;50.944;5.382;2024-03-06T14:25:34;21.30;58.80
43651;DHT22;29247;50.944;5.382;2024-03-06T14:28:01;21.40;58.80
43651;DHT22;29247;50.944;5.382;2024-03-06T14:30:27;21.40;58.80
43651;DHT22;29247;50.944;5.382;2024-03-06T14:32:55;21.40;58.70
43651;DHT22;29247;50.944;5.382;2024-03-06T14:35:23;21.40;59.30
43651;DHT22;29247;50.944;5.382;2024-03-06T14:37:50;21.50;58.70
43651;DHT22;29247;50.944;5.382;2024-03-06T14:40:18;21.50;58.60
43651;DHT22;29247;50.944;5.382;2024-03-06T14:42:43;21.50;58.60
43651;DHT22;29247;50.944;5.382;2024-03-06T14:45:11;21.60;58.60
43651;DHT22;29247;50.944;5.382;2024-03-06T14:47:37;21.60;58.60
43651;DHT22;29247;50.944;5.382;2024-03-06T14:50:03;21.60;58.50
43651;DHT22;29247;50.944;5.382;2024-03-06T14:52:31;21.60;58.50
43651;DHT22;29247;50.944;5.382;2024-03-06T14:54:59;21.60;58.40
43651;DHT22;29247;50.944;5.382;2024-03-06T14:57:25;21.70;58.40
43651;DHT22;29247;50.944;5.382;2024-03-06T14:59:51;21.70;58.40
43651;DHT22;29247;50.944;5.382;2024-03-06T15:02:19;21.70;58.40
43651;DHT22;29247;50.944;5.382;2024-03-06T15:04:45;21.70;58.40
43651;DHT22;29247;50.944;5.382;2024-03-06T15:07:11;21.70;58.30
43651;DHT22;29247;50.944;5.382;2024-03-06T15:09:37;21.70;58.30
43651;DHT22;29247;50.944;5.382;2024-03-06T15:12:05;21.70;58.30
43651;DHT22;29247;50.944;5.382;2024-03-06T15:14:31;21.80;58.40
43651;DHT22;29247;50.944;5.382;2024-03-06T15:16:59;21.80;58.40
43651;DHT22;29247;50.944;5.382;2024-03-06T15:19:27;21.80;58.40
43651;DHT22;29247;50.944;5.382;2024-03-06T15:21:53;21.80;58.40
43651;DHT22;29247;50.944;5.382;2024-03-06T15:24:19;21.80;58.40
43651;DHT22;29247;50.944;5.382;2024-03-06T15:26:45;21.80;58.30
43651;DHT22;29247;50.944;5.382;2024-03-06T15:29:13;21.80;58.30
43651;DHT22;29247;50.944;5.382;2024-03-06T15:31:41;21.90;58.40
43651;DHT22;29247;50.944;5.382;2024-03-06T15:34:06;21.90;58.30